sensor_id;sensor_type;location;lat;lon;timestamp;temperature;humidity
25554;DHT22;13446;50.926;5.332;2024-02-14T00:02:12;10.40;99.90
25554;DHT22;13446;50.926;5.332;2024-02-14T00:04:38;10.40;99.90
25554;DHT22;13446;50.926;5.332;2024-02-14T00:07:04;10.40;99.90
25554;DHT22;13446;50.926;5.332;2024-02-14T00:09:31;10.50;99.90
25554;DHT22;13446;50.926;5.332;2024-02-14T00:11:56;10.60;99.90
25554;DHT22;13446;50.926;5.332;2024-02-14T00:14:22;10.50;99.90
25554;DHT22;13446;50.926;5.332;2024-02-14T00:16:48;10.60;99.90
25554;DHT22;13446;50.926;5.332;2024-02-14T00:19:13;10.60;99.90
25554;DHT22;13446;50.926;5.332;2024-02-14T00:21:40;10.40;99.90
25554;DHT22;13446;50.926;5.332;2024-02-14T00:24:06;10.40;99.90
25554;DHT22;13446;50.926;5.332;2024-02-14T00:26:33;10.40;99.90
25554;DHT22;13446;50.926;5.332;2024-02-14T00:29:00;10.40;99.90
25554;DHT22;13446;50.926;5.332;2024-02-14T00:31:31;10.60;99.90
25554;DHT22;13446;50.926;5.332;2024-02-14T00:33:57;10.70;99.90
25554;DHT22;13446;50.926;5.332;2024-02-14T00:36:23;10.70;99.90
25554;DHT22;13446;50.926;5.332;2024-02-14T00:38:49;10.70;99.90
25554;DHT22;13446;50.926;5.332;2024-02-14T00:41:14;10.70;99.90
25554;DHT22;13446;50.926;5.332;2024-02-14T00:43:40;10.70;99.90
25554;DHT22;13446;50.926;5.332;2024-02-14T00:46:06;10.90;99.90
25554;DHT22;13446;50.926;5.332;2024-02-14T00:48:34;10.90;99.90
25554;DHT22;13446;50.926;5.332;2024-02-14T00:51:00;10.90;99.90
25554;DHT22;13446;50.926;5.332;2024-02-14T00:53:26;10.90;99.90
25554;DHT22;13446;50.926;5.332;2024-02-14T00:55:52;10.90;99.90
25554;DHT22;13446;50.926;5.332;2024-02-14T00:58:18;10.80;99.90
25554;DHT22;13446;50.926;5.332;2024-02-14T01:00:43;10.70;99.90
25554;DHT22;13446;50.926;5.332;2024-02-14T01:03:09;10.70;99.90
25554;DHT22;13446;50.926;5.332;2024-02-14T01:05:41;10.80;99.90
25554;DHT22;13446;50.926;5.332;2024-02-14T01:08:07;10.80;99.90
25554;DHT22;13446;50.926;5.332;2024-02-14T01:10:32;10.80;99.90
25554;DHT22;13446;50.926;5.332;2024-02-14T01:13:00;10.90;99.90
25554;DHT22;13446;50.926;5.332;2024-02-14T01:15:25;10.80;99.90
25554;DHT22;13446;50.926;5.332;2024-02-14T01:17:51;10.80;99.90
25554;DHT22;13446;50.926;5.332;2024-02-14T01:20:17;10.80;99.90
25554;DHT22;13446;50.926;5.332;2024-02-14T01:22:43;10.70;99.90
25554;DHT22;13446;50.926;5.332;2024-02-14T01:25:17;10.60;99.90
25554;DHT22;13446;50.926;5.332;2024-02-14T01:27:43;10.70;99.90
25554;DHT22;13446;50.926;5.332;2024-02-14T01:30:10;10.70;99.90
25554;DHT22;13446;50.926;5.332;2024-02-14T01:32:36;10.90;99.90
25554;DHT22;13446;50.926;5.332;2024-02-14T01:35:07;10.90;99.90
25554;DHT22;13446;50.926;5.332;2024-02-14T01:37:35;11.00;99.90
25554;DHT22;13446;50.926;5.332;2024-02-14T01:40:00;11.00;99.90
25554;DHT22;13446;50.926;5.332;2024-02-14T01:42:28;11.00;99.90
25554;DHT22;13446;50.926;5.332;2024-02-14T01:44:56;11.00;99.90
25554;DHT22;13446;50.926;5.332;2024-02-14T01:47:22;10.90;99.90
25554;DHT22;13446;50.926;5.332;2024-02-14T01:49:54;10.90;99.90
25554;DHT22;13446;50.926;5.332;2024-02-14T01:52:24;10.80;99.90
25554;DHT22;13446;50.926;5.332;2024-02-14T01:54:51;10.90;99.90
25554;DHT22;13446;50.926;5.332;2024-02-14T01:57:17;10.90;99.90
25554;DHT22;13446;50.926;5.332;2024-02-14T01:59:43;10.90;99.90
25554;DHT22;13446;50.926;5.332;2024-02-14T02:02:09;11.00;99.90
25554;DHT22;13446;50.926;5.332;2024-02-14T02:04:35;10.90;99.90
25554;DHT22;13446;50.926;5.332;2024-02-14T02:07:01;10.90;99.90
25554;DHT22;13446;50.926;5.332;2024-02-14T02:09:35;10.90;99.90
25554;DHT22;13446;50.926;5.332;2024-02-14T02:12:01;10.80;99.90
25554;DHT22;13446;50.926;5.332;2024-02-14T02:14:27;10.90;99.90
25554;DHT22;13446;50.926;5.332;2024-02-14T02:16:53;11.00;99.90
25554;DHT22;13446;50.926;5.332;2024-02-14T02:19:19;11.00;99.90
25554;DHT22;13446;50.926;5.332;2024-02-14T02:21:45;11.00;99.90
25554;DHT22;13446;50.926;5.332;2024-02-14T02:24:11;11.00;99.90
25554;DHT22;13446;50.926;5.332;2024-02-14T02:26:37;10.90;99.90
25554;DHT22;13446;50.926;5.332;2024-02-14T02:29:03;10.80;99.90
25554;DHT22;13446;50.926;5.332;2024-02-14T02:31:30;10.80;99.90
25554;DHT22;13446;50.926;5.332;2024-02-14T02:33:56;10.80;99.90
25554;DHT22;13446;50.926;5.332;2024-02-14T02:36:22;10.90;99.90
25554;DHT22;13446;50.926;5.332;2024-02-14T02:38:50;10.70;99.90
25554;DHT22;13446;50.926;5.332;2024-02-14T02:41:15;10.60;99.90
25554;DHT22;13446;50.926;5.332;2024-02-14T02:43:41;10.60;99.90
25554;DHT22;13446;50.926;5.332;2024-02-14T02:46:09;10.70;99.90
25554;DHT22;13446;50.926;5.332;2024-02-14T02:48:35;10.70;99.90
25554;DHT22;13446;50.926;5.332;2024-02-14T02:51:02;10.70;99.90
25554;DHT22;13446;50.926;5.332;2024-02-14T02:53:28;10.70;99.90
25554;DHT22;13446;50.926;5.332;2024-02-14T02:55:54;10.70;99.90
25554;DHT22;13446;50.926;5.332;2024-02-14T02:58:22;10.70;99.90
25554;DHT22;13446;50.926;5.332;2024-02-14T03:00:48;10.70;99.90
25554;DHT22;13446;50.926;5.332;2024-02-14T03:03:18;10.70;99.90
25554;DHT22;13446;50.926;5.332;2024-02-14T03:05:44;10.70;99.90
25554;DHT22;13446;50.926;5.332;2024-02-14T03:08:11;10.80;99.90
25554;DHT22;13446;50.926;5.332;2024-02-14T03:10:41;10.80;99.90
25554;DHT22;13446;50.926;5.332;2024-02-14T03:13:07;10.80;99.90
25554;DHT22;13446;50.926;5.332;2024-02-14T03:15:46;10.70;99.90
25554;DHT22;13446;50.926;5.332;2024-02-14T03:18:15;10.60;99.90
25554;DHT22;13446;50.926;5.332;2024-02-14T03:20:40;10.60;99.90
25554;DHT22;13446;50.926;5.332;2024-02-14T03:23:06;10.70;99.90
25554;DHT22;13446;50.926;5.332;2024-02-14T03:25:32;10.60;99.90
25554;DHT22;13446;50.926;5.332;2024-02-14T03:27:58;10.70;99.90
25554;DHT22;13446;50.926;5.332;2024-02-14T03:30:24;10.80;99.90
25554;DHT22;13446;50.926;5.332;2024-02-14T03:32:50;10.80;99.90
25554;DHT22;13446;50.926;5.332;2024-02-14T03:35:16;10.90;99.90
25554;DHT22;13446;50.926;5.332;2024-02-14T03:37:45;11.00;99.90
25554;DHT22;13446;50.926;5.332;2024-02-14T03:40:13;10.90;99.90
25554;DHT22;13446;50.926;5.332;2024-02-14T03:42:38;11.00;99.90
25554;DHT22;13446;50.926;5.332;2024-02-14T03:45:09;11.10;99.90
25554;DHT22;13446;50.926;5.332;2024-02-14T03:47:38;11.10;99.90
25554;DHT22;13446;50.926;5.332;2024-02-14T03:50:05;11.00;99.90
25554;DHT22;13446;50.926;5.332;2024-02-14T03:52:32;10.80;99.90
25554;DHT22;13446;50.926;5.332;2024-02-14T03:54:59;11.00;99.90
25554;DHT22;13446;50.926;5.332;2024-02-14T03:57:25;11.10;99.90
25554;DHT22;13446;50.926;5.332;2024-02-14T03:59:58;11.10;99.90
25554;DHT22;13446;50.926;5.332;2024-02-14T04:02:24;11.00;99.90
25554;DHT22;13446;50.926;5.332;2024-02-14T04:04:53;11.10;99.90
25554;DHT22;13446;50.926;5.332;2024-02-14T04:07:20;11.20;99.90
25554;DHT22;13446;50.926;5.332;2024-02-14T04:09:50;11.20;99.90
25554;DHT22;13446;50.926;5.332;2024-02-14T04:12:16;11.20;99.90
25554;DHT22;13446;50.926;5.332;2024-02-14T04:14:42;11.10;99.90
25554;DHT22;13446;50.926;5.332;2024-02-14T04:17:07;10.90;99.90
25554;DHT22;13446;50.926;5.332;2024-02-14T04:19:39;11.00;99.90
25554;DHT22;13446;50.926;5.332;2024-02-14T04:22:04;11.10;99.90
25554;DHT22;13446;50.926;5.332;2024-02-14T04:24:33;11.00;99.90
25554;DHT22;13446;50.926;5.332;2024-02-14T04:26:59;11.00;99.90
25554;DHT22;13446;50.926;5.332;2024-02-14T04:29:26;11.00;99.90
25554;DHT22;13446;50.926;5.332;2024-02-14T04:31:56;10.90;99.90
25554;DHT22;13446;50.926;5.332;2024-02-14T04:34:26;11.10;99.90
25554;DHT22;13446;50.926;5.332;2024-02-14T04:36:53;11.00;99.90
25554;DHT22;13446;50.926;5.332;2024-02-14T04:39:21;10.90;99.90
25554;DHT22;13446;50.926;5.332;2024-02-14T04:41:46;11.00;99.90
25554;DHT22;13446;50.926;5.332;2024-02-14T04:44:15;11.00;99.90
25554;DHT22;13446;50.926;5.332;2024-02-14T04:46:41;10.90;99.90
25554;DHT22;13446;50.926;5.332;2024-02-14T04:49:09;10.80;99.90
25554;DHT22;13446;50.926;5.332;2024-02-14T04:51:35;10.80;99.90
25554;DHT22;13446;50.926;5.332;2024-02-14T04:54:00;11.00;99.90
25554;DHT22;13446;50.926;5.332;2024-02-14T04:56:28;11.10;99.90
25554;DHT22;13446;50.926;5.332;2024-02-14T04:58:54;11.10;99.90
25554;DHT22;13446;50.926;5.332;2024-02-14T05:01:23;11.10;99.90
25554;DHT22;13446;50.926;5.332;2024-02-14T05:03:49;11.00;99.90
25554;DHT22;13446;50.926;5.332;2024-02-14T05:06:15;11.10;99.90
25554;DHT22;13446;50.926;5.332;2024-02-14T05:08:41;11.10;99.90
25554;DHT22;13446;50.926;5.332;2024-02-14T05:11:07;11.10;99.90
25554;DHT22;13446;50.926;5.332;2024-02-14T05:13:33;11.10;99.90
25554;DHT22;13446;50.926;5.332;2024-02-14T05:16:02;11.20;99.90
25554;DHT22;13446;50.926;5.332;2024-02-14T05:18:28;11.10;99.90
25554;DHT22;13446;50.926;5.332;2024-02-14T05:20:54;11.10;99.90
25554;DHT22;13446;50.926;5.332;2024-02-14T05:23:19;11.10;99.90
25554;DHT22;13446;50.926;5.332;2024-02-14T05:25:45;11.10;99.90
25554;DHT22;13446;50.926;5.332;2024-02-14T05:28:11;11.10;99.90
25554;DHT22;13446;50.926;5.332;2024-02-14T05:30:39;11.10;99.90
25554;DHT22;13446;50.926;5.332;2024-02-14T05:33:05;11.10;99.90
25554;DHT22;13446;50.926;5.332;2024-02-14T05:35:32;11.10;99.90
25554;DHT22;13446;50.926;5.332;2024-02-14T05:37:59;11.10;99.90
25554;DHT22;13446;50.926;5.332;2024-02-14T05:40:25;11.30;99.90
25554;DHT22;13446;50.926;5.332;2024-02-14T05:42:51;11.40;99.90
25554;DHT22;13446;50.926;5.332;2024-02-14T05:45:17;11.30;99.90
25554;DHT22;13446;50.926;5.332;2024-02-14T05:47:43;11.30;99.90
25554;DHT22;13446;50.926;5.332;2024-02-14T05:50:09;11.20;99.90
25554;DHT22;13446;50.926;5.332;2024-02-14T05:52:39;11.30;99.90
25554;DHT22;13446;50.926;5.332;2024-02-14T05:55:05;11.30;99.90
25554;DHT22;13446;50.926;5.332;2024-02-14T05:57:32;11.30;99.90
25554;DHT22;13446;50.926;5.332;2024-02-14T05:59:58;11.30;99.90
25554;DHT22;13446;50.926;5.332;2024-02-14T06:02:24;11.30;99.90
25554;DHT22;13446;50.926;5.332;2024-02-14T06:04:49;11.30;99.90
25554;DHT22;13446;50.926;5.332;2024-02-14T06:07:17;11.30;99.90
25554;DHT22;13446;50.926;5.332;2024-02-14T06:09:43;11.30;99.90
25554;DHT22;13446;50.926;5.332;2024-02-14T06:12:08;11.20;99.90
25554;DHT22;13446;50.926;5.332;2024-02-14T06:14:36;11.10;99.90
25554;DHT22;13446;50.926;5.332;2024-02-14T06:17:02;11.20;99.90
25554;DHT22;13446;50.926;5.332;2024-02-14T06:19:27;11.20;99.90
25554;DHT22;13446;50.926;5.332;2024-02-14T06:21:55;11.20;99.90
25554;DHT22;13446;50.926;5.332;2024-02-14T06:24:20;11.20;99.90
25554;DHT22;13446;50.926;5.332;2024-02-14T06:26:46;11.20;99.90
25554;DHT22;13446;50.926;5.332;2024-02-14T06:29:12;11.20;99.90
25554;DHT22;13446;50.926;5.332;2024-02-14T06:31:37;11.20;99.90
25554;DHT22;13446;50.926;5.332;2024-02-14T06:34:03;11.30;99.90
25554;DHT22;13446;50.926;5.332;2024-02-14T06:36:30;11.30;99.90
25554;DHT22;13446;50.926;5.332;2024-02-14T06:38:56;11.40;99.90
25554;DHT22;13446;50.926;5.332;2024-02-14T06:41:22;11.40;99.90
25554;DHT22;13446;50.926;5.332;2024-02-14T06:43:48;11.60;99.90
25554;DHT22;13446;50.926;5.332;2024-02-14T06:46:16;11.60;99.90
25554;DHT22;13446;50.926;5.332;2024-02-14T06:48:41;11.50;99.90
25554;DHT22;13446;50.926;5.332;2024-02-14T06:51:07;11.50;99.90
25554;DHT22;13446;50.926;5.332;2024-02-14T06:53:33;11.50;99.90
25554;DHT22;13446;50.926;5.332;2024-02-14T06:56:00;11.60;99.90
25554;DHT22;13446;50.926;5.332;2024-02-14T06:58:25;11.60;99.90
25554;DHT22;13446;50.926;5.332;2024-02-14T07:00:51;11.60;99.90
25554;DHT22;13446;50.926;5.332;2024-02-14T07:03:17;11.60;99.90
25554;DHT22;13446;50.926;5.332;2024-02-14T07:05:43;11.60;99.90
25554;DHT22;13446;50.926;5.332;2024-02-14T07:08:09;11.60;99.90
25554;DHT22;13446;50.926;5.332;2024-02-14T07:10:34;11.60;99.90
25554;DHT22;13446;50.926;5.332;2024-02-14T07:13:00;11.60;99.90
25554;DHT22;13446;50.926;5.332;2024-02-14T07:15:26;11.60;99.90
25554;DHT22;13446;50.926;5.332;2024-02-14T07:18:09;11.60;99.90
25554;DHT22;13446;50.926;5.332;2024-02-14T07:20:35;11.60;99.90
25554;DHT22;13446;50.926;5.332;2024-02-14T07:25:58;11.60;99.90
25554;DHT22;13446;50.926;5.332;2024-02-14T07:31:21;11.90;99.90
25554;DHT22;13446;50.926;5.332;2024-02-14T07:33:48;11.90;99.90
25554;DHT22;13446;50.926;5.332;2024-02-14T07:36:18;11.90;99.90
25554;DHT22;13446;50.926;5.332;2024-02-14T07:38:44;11.90;99.90
25554;DHT22;13446;50.926;5.332;2024-02-14T07:41:10;11.90;99.90
25554;DHT22;13446;50.926;5.332;2024-02-14T07:43:36;11.90;99.90
25554;DHT22;13446;50.926;5.332;2024-02-14T07:46:01;11.90;99.90
25554;DHT22;13446;50.926;5.332;2024-02-14T07:48:33;11.90;99.90
25554;DHT22;13446;50.926;5.332;2024-02-14T07:54:44;12.00;99.90
25554;DHT22;13446;50.926;5.332;2024-02-14T08:11:41;12.30;99.90
25554;DHT22;13446;50.926;5.332;2024-02-14T08:14:08;12.40;99.90
25554;DHT22;13446;50.926;5.332;2024-02-14T08:16:34;12.40;99.90
25554;DHT22;13446;50.926;5.332;2024-02-14T08:19:02;12.40;99.90
25554;DHT22;13446;50.926;5.332;2024-02-14T08:21:28;12.30;99.90
25554;DHT22;13446;50.926;5.332;2024-02-14T08:23:54;12.40;99.90
25554;DHT22;13446;50.926;5.332;2024-02-14T08:26:23;12.60;99.90
25554;DHT22;13446;50.926;5.332;2024-02-14T08:28:49;12.60;99.90
25554;DHT22;13446;50.926;5.332;2024-02-14T08:31:15;12.70;99.90
25554;DHT22;13446;50.926;5.332;2024-02-14T08:33:41;12.70;99.90
25554;DHT22;13446;50.926;5.332;2024-02-14T08:36:07;12.70;99.90
25554;DHT22;13446;50.926;5.332;2024-02-14T08:38:33;12.70;99.90
25554;DHT22;13446;50.926;5.332;2024-02-14T08:41:02;12.80;99.90
25554;DHT22;13446;50.926;5.332;2024-02-14T08:43:30;12.90;99.90
25554;DHT22;13446;50.926;5.332;2024-02-14T08:45:57;12.70;99.90
25554;DHT22;13446;50.926;5.332;2024-02-14T09:03:13;12.70;99.90
25554;DHT22;13446;50.926;5.332;2024-02-14T09:05:39;12.70;99.90
25554;DHT22;13446;50.926;5.332;2024-02-14T09:08:05;12.60;99.90
25554;DHT22;13446;50.926;5.332;2024-02-14T09:13:45;12.50;99.90
25554;DHT22;13446;50.926;5.332;2024-02-14T09:16:13;12.50;99.90
25554;DHT22;13446;50.926;5.332;2024-02-14T09:18:41;12.60;99.90
25554;DHT22;13446;50.926;5.332;2024-02-14T09:21:07;12.60;99.90
25554;DHT22;13446;50.926;5.332;2024-02-14T09:23:33;12.60;99.90
25554;DHT22;13446;50.926;5.332;2024-02-14T09:26:06;12.60;99.90
25554;DHT22;13446;50.926;5.332;2024-02-14T09:28:33;12.70;99.90
25554;DHT22;13446;50.926;5.332;2024-02-14T09:31:00;12.60;99.90
25554;DHT22;13446;50.926;5.332;2024-02-14T09:33:26;12.60;99.90
25554;DHT22;13446;50.926;5.332;2024-02-14T09:35:53;12.40;99.90
25554;DHT22;13446;50.926;5.332;2024-02-14T09:38:19;12.40;99.90
25554;DHT22;13446;50.926;5.332;2024-02-14T09:43:52;12.60;99.90
25554;DHT22;13446;50.926;5.332;2024-02-14T09:46:18;12.60;99.90
25554;DHT22;13446;50.926;5.332;2024-02-14T09:48:45;12.50;99.90
25554;DHT22;13446;50.926;5.332;2024-02-14T09:51:11;12.60;99.90
25554;DHT22;13446;50.926;5.332;2024-02-14T09:53:40;12.60;99.90
25554;DHT22;13446;50.926;5.332;2024-02-14T09:56:06;12.60;99.90
25554;DHT22;13446;50.926;5.332;2024-02-14T09:58:34;12.70;99.90
25554;DHT22;13446;50.926;5.332;2024-02-14T10:01:00;12.60;99.90
25554;DHT22;13446;50.926;5.332;2024-02-14T10:03:26;12.70;99.90
25554;DHT22;13446;50.926;5.332;2024-02-14T10:05:52;12.60;99.90
25554;DHT22;13446;50.926;5.332;2024-02-14T10:08:24;12.60;99.90
25554;DHT22;13446;50.926;5.332;2024-02-14T10:11:04;12.70;99.90
25554;DHT22;13446;50.926;5.332;2024-02-14T10:13:33;12.70;99.90
25554;DHT22;13446;50.926;5.332;2024-02-14T10:16:12;12.60;99.90
25554;DHT22;13446;50.926;5.332;2024-02-14T10:19:20;12.60;99.90
25554;DHT22;13446;50.926;5.332;2024-02-14T10:21:58;12.80;99.90
25554;DHT22;13446;50.926;5.332;2024-02-14T10:27:53;13.00;99.90
25554;DHT22;13446;50.926;5.332;2024-02-14T10:30:25;12.90;99.90
25554;DHT22;13446;50.926;5.332;2024-02-14T10:32:51;12.80;99.90
25554;DHT22;13446;50.926;5.332;2024-02-14T10:35:20;12.80;99.90
25554;DHT22;13446;50.926;5.332;2024-02-14T10:37:47;12.80;99.90
25554;DHT22;13446;50.926;5.332;2024-02-14T10:40:14;13.00;99.90
25554;DHT22;13446;50.926;5.332;2024-02-14T10:42:40;12.90;99.90
25554;DHT22;13446;50.926;5.332;2024-02-14T10:45:06;13.10;99.90
25554;DHT22;13446;50.926;5.332;2024-02-14T10:47:35;13.10;99.90
25554;DHT22;13446;50.926;5.332;2024-02-14T10:50:06;13.20;99.90
25554;DHT22;13446;50.926;5.332;2024-02-14T10:52:35;13.20;99.90
25554;DHT22;13446;50.926;5.332;2024-02-14T10:55:10;13.10;99.90
25554;DHT22;13446;50.926;5.332;2024-02-14T10:57:38;13.10;99.90
25554;DHT22;13446;50.926;5.332;2024-02-14T11:00:08;13.00;99.90
25554;DHT22;13446;50.926;5.332;2024-02-14T11:02:39;13.00;99.90
25554;DHT22;13446;50.926;5.332;2024-02-14T11:05:05;12.90;99.90
25554;DHT22;13446;50.926;5.332;2024-02-14T11:07:32;13.00;99.90
25554;DHT22;13446;50.926;5.332;2024-02-14T11:10:07;12.90;99.90
25554;DHT22;13446;50.926;5.332;2024-02-14T11:12:37;12.90;99.90
25554;DHT22;13446;50.926;5.332;2024-02-14T11:15:19;13.00;99.90
25554;DHT22;13446;50.926;5.332;2024-02-14T11:17:45;12.80;99.90
25554;DHT22;13446;50.926;5.332;2024-02-14T11:20:30;12.90;99.90
25554;DHT22;13446;50.926;5.332;2024-02-14T11:22:58;12.90;99.90
25554;DHT22;13446;50.926;5.332;2024-02-14T11:25:30;12.90;99.90
25554;DHT22;13446;50.926;5.332;2024-02-14T11:28:15;12.90;99.90
25554;DHT22;13446;50.926;5.332;2024-02-14T11:30:42;12.80;99.90
25554;DHT22;13446;50.926;5.332;2024-02-14T11:33:13;12.80;99.90
25554;DHT22;13446;50.926;5.332;2024-02-14T11:35:41;12.80;99.90
25554;DHT22;13446;50.926;5.332;2024-02-14T11:38:07;12.80;99.90
25554;DHT22;13446;50.926;5.332;2024-02-14T11:40:33;12.70;99.90
25554;DHT22;13446;50.926;5.332;2024-02-14T11:42:59;12.70;99.90
25554;DHT22;13446;50.926;5.332;2024-02-14T11:45:25;12.70;99.90
25554;DHT22;13446;50.926;5.332;2024-02-14T11:47:55;12.70;99.90
25554;DHT22;13446;50.926;5.332;2024-02-14T11:50:21;12.90;99.90
25554;DHT22;13446;50.926;5.332;2024-02-14T11:52:47;12.90;99.90
25554;DHT22;13446;50.926;5.332;2024-02-14T11:55:17;12.80;99.90
25554;DHT22;13446;50.926;5.332;2024-02-14T11:57:42;12.70;99.90
25554;DHT22;13446;50.926;5.332;2024-02-14T12:00:08;12.60;99.90
25554;DHT22;13446;50.926;5.332;2024-02-14T12:02:50;12.70;99.90
25554;DHT22;13446;50.926;5.332;2024-02-14T12:05:17;12.70;99.90
25554;DHT22;13446;50.926;5.332;2024-02-14T12:07:44;12.90;99.90
25554;DHT22;13446;50.926;5.332;2024-02-14T12:10:19;12.90;99.90
25554;DHT22;13446;50.926;5.332;2024-02-14T12:15:45;12.90;99.90
25554;DHT22;13446;50.926;5.332;2024-02-14T12:18:11;13.00;99.90
25554;DHT22;13446;50.926;5.332;2024-02-14T12:20:38;13.00;99.90
25554;DHT22;13446;50.926;5.332;2024-02-14T12:23:04;13.00;99.90
25554;DHT22;13446;50.926;5.332;2024-02-14T12:25:33;13.10;99.90
25554;DHT22;13446;50.926;5.332;2024-02-14T12:28:00;13.00;99.90
25554;DHT22;13446;50.926;5.332;2024-02-14T12:30:45;13.10;99.90
25554;DHT22;13446;50.926;5.332;2024-02-14T12:33:13;13.00;99.90
25554;DHT22;13446;50.926;5.332;2024-02-14T12:35:46;13.00;99.90
25554;DHT22;13446;50.926;5.332;2024-02-14T12:38:13;12.90;99.90
25554;DHT22;13446;50.926;5.332;2024-02-14T12:40:40;13.00;99.90
25554;DHT22;13446;50.926;5.332;2024-02-14T12:43:10;12.90;99.90
25554;DHT22;13446;50.926;5.332;2024-02-14T12:45:37;12.90;99.90
25554;DHT22;13446;50.926;5.332;2024-02-14T12:48:04;13.00;99.90
25554;DHT22;13446;50.926;5.332;2024-02-14T12:50:31;13.20;99.90
25554;DHT22;13446;50.926;5.332;2024-02-14T12:52:57;13.10;99.90
25554;DHT22;13446;50.926;5.332;2024-02-14T12:55:35;13.00;99.90
25554;DHT22;13446;50.926;5.332;2024-02-14T12:58:01;13.10;99.90
25554;DHT22;13446;50.926;5.332;2024-02-14T13:00:27;13.10;99.90
25554;DHT22;13446;50.926;5.332;2024-02-14T13:02:55;13.10;99.90
25554;DHT22;13446;50.926;5.332;2024-02-14T13:05:21;13.10;99.90
25554;DHT22;13446;50.926;5.332;2024-02-14T13:07:48;13.10;99.90
25554;DHT22;13446;50.926;5.332;2024-02-14T13:10:15;13.10;99.90
25554;DHT22;13446;50.926;5.332;2024-02-14T13:12:41;13.20;99.90
25554;DHT22;13446;50.926;5.332;2024-02-14T13:15:09;13.20;99.90
25554;DHT22;13446;50.926;5.332;2024-02-14T13:17:44;13.20;99.90
25554;DHT22;13446;50.926;5.332;2024-02-14T13:20:12;13.20;99.90
25554;DHT22;13446;50.926;5.332;2024-02-14T13:22:58;13.10;99.90
25554;DHT22;13446;50.926;5.332;2024-02-14T13:25:24;13.10;99.90
25554;DHT22;13446;50.926;5.332;2024-02-14T13:30:39;13.20;99.90
25554;DHT22;13446;50.926;5.332;2024-02-14T13:33:05;13.30;99.90
25554;DHT22;13446;50.926;5.332;2024-02-14T13:35:31;13.30;99.90
25554;DHT22;13446;50.926;5.332;2024-02-14T13:38:03;13.30;99.90
25554;DHT22;13446;50.926;5.332;2024-02-14T13:40:29;13.20;99.90
25554;DHT22;13446;50.926;5.332;2024-02-14T13:43:13;13.30;99.90
25554;DHT22;13446;50.926;5.332;2024-02-14T13:45:54;13.10;99.90
25554;DHT22;13446;50.926;5.332;2024-02-14T13:48:20;13.00;99.90
25554;DHT22;13446;50.926;5.332;2024-02-14T13:50:47;13.00;99.90
25554;DHT22;13446;50.926;5.332;2024-02-14T13:53:15;13.10;99.90
25554;DHT22;13446;50.926;5.332;2024-02-14T13:55:42;13.00;99.90
25554;DHT22;13446;50.926;5.332;2024-02-14T13:58:08;13.10;99.90
25554;DHT22;13446;50.926;5.332;2024-02-14T14:00:41;13.30;99.90
25554;DHT22;13446;50.926;5.332;2024-02-14T14:03:06;13.40;99.90
25554;DHT22;13446;50.926;5.332;2024-02-14T14:05:32;13.30;99.90
25554;DHT22;13446;50.926;5.332;2024-02-14T14:07:58;13.20;99.90
25554;DHT22;13446;50.926;5.332;2024-02-14T14:10:25;13.20;99.90
25554;DHT22;13446;50.926;5.332;2024-02-14T14:12:51;13.20;99.90
25554;DHT22;13446;50.926;5.332;2024-02-14T14:15:17;13.20;99.90
25554;DHT22;13446;50.926;5.332;2024-02-14T14:17:42;13.20;99.90
25554;DHT22;13446;50.926;5.332;2024-02-14T14:20:09;13.30;99.90
25554;DHT22;13446;50.926;5.332;2024-02-14T14:22:34;13.30;99.90
25554;DHT22;13446;50.926;5.332;2024-02-14T14:25:06;13.20;99.90
25554;DHT22;13446;50.926;5.332;2024-02-14T14:27:34;13.40;99.90
25554;DHT22;13446;50.926;5.332;2024-02-14T14:29:59;13.30;99.90
25554;DHT22;13446;50.926;5.332;2024-02-14T14:32:25;13.30;99.90
25554;DHT22;13446;50.926;5.332;2024-02-14T14:34:51;13.20;99.90
25554;DHT22;13446;50.926;5.332;2024-02-14T14:37:16;13.10;99.90
25554;DHT22;13446;50.926;5.332;2024-02-14T14:39:42;13.10;99.90
25554;DHT22;13446;50.926;5.332;2024-02-14T14:42:09;13.10;99.90
25554;DHT22;13446;50.926;5.332;2024-02-14T14:44:35;13.20;99.90
25554;DHT22;13446;50.926;5.332;2024-02-14T14:47:02;13.30;99.90
25554;DHT22;13446;50.926;5.332;2024-02-14T14:49:27;13.30;99.90
25554;DHT22;13446;50.926;5.332;2024-02-14T14:51:53;13.10;99.90
25554;DHT22;13446;50.926;5.332;2024-02-14T14:54:19;13.20;99.90
25554;DHT22;13446;50.926;5.332;2024-02-14T14:56:45;13.20;99.90
25554;DHT22;13446;50.926;5.332;2024-02-14T14:59:11;13.30;99.90
25554;DHT22;13446;50.926;5.332;2024-02-14T15:01:37;13.20;99.90
25554;DHT22;13446;50.926;5.332;2024-02-14T15:04:04;13.20;99.90
25554;DHT22;13446;50.926;5.332;2024-02-14T15:06:30;13.30;99.90
25554;DHT22;13446;50.926;5.332;2024-02-14T15:08:58;13.40;99.90
25554;DHT22;13446;50.926;5.332;2024-02-14T15:11:24;13.30;99.90
25554;DHT22;13446;50.926;5.332;2024-02-14T15:13:50;13.20;99.90
25554;DHT22;13446;50.926;5.332;2024-02-14T15:16:16;13.30;99.90
25554;DHT22;13446;50.926;5.332;2024-02-14T15:18:41;13.30;99.90
25554;DHT22;13446;50.926;5.332;2024-02-14T15:21:09;13.40;99.90
25554;DHT22;13446;50.926;5.332;2024-02-14T15:23:34;13.30;99.90
25554;DHT22;13446;50.926;5.332;2024-02-14T15:26:00;13.30;99.90
25554;DHT22;13446;50.926;5.332;2024-02-14T15:28:29;13.20;99.90
25554;DHT22;13446;50.926;5.332;2024-02-14T15:30:59;13.20;99.90
25554;DHT22;13446;50.926;5.332;2024-02-14T15:33:43;13.30;99.90
25554;DHT22;13446;50.926;5.332;2024-02-14T15:36:09;13.30;99.90
25554;DHT22;13446;50.926;5.332;2024-02-14T15:38:35;13.30;99.90
25554;DHT22;13446;50.926;5.332;2024-02-14T15:41:02;13.20;99.90
25554;DHT22;13446;50.926;5.332;2024-02-14T15:43:29;13.30;99.90
25554;DHT22;13446;50.926;5.332;2024-02-14T15:45:56;13.40;99.90
25554;DHT22;13446;50.926;5.332;2024-02-14T15:48:22;13.50;99.90
25554;DHT22;13446;50.926;5.332;2024-02-14T15:50:50;13.40;99.90
25554;DHT22;13446;50.926;5.332;2024-02-14T15:53:16;13.50;99.90
25554;DHT22;13446;50.926;5.332;2024-02-14T15:55:42;13.40;99.90
25554;DHT22;13446;50.926;5.332;2024-02-14T15:58:08;13.60;99.90
25554;DHT22;13446;50.926;5.332;2024-02-14T16:00:35;13.70;99.90
25554;DHT22;13446;50.926;5.332;2024-02-14T16:03:01;13.60;99.90
25554;DHT22;13446;50.926;5.332;2024-02-14T16:05:28;13.50;99.90
25554;DHT22;13446;50.926;5.332;2024-02-14T16:07:54;13.50;99.90
25554;DHT22;13446;50.926;5.332;2024-02-14T16:10:20;13.50;99.90
25554;DHT22;13446;50.926;5.332;2024-02-14T16:12:47;13.70;99.90
25554;DHT22;13446;50.926;5.332;2024-02-14T16:15:15;13.70;99.90
25554;DHT22;13446;50.926;5.332;2024-02-14T16:17:43;13.60;99.90
25554;DHT22;13446;50.926;5.332;2024-02-14T16:20:11;13.70;99.90
25554;DHT22;13446;50.926;5.332;2024-02-14T16:22:38;13.60;99.90
25554;DHT22;13446;50.926;5.332;2024-02-14T16:25:05;13.50;99.90
25554;DHT22;13446;50.926;5.332;2024-02-14T16:27:36;13.50;99.90